Time;durP1;ratioP1;P1;durP2;ratioP2;P2;SDS_P1;SDS_P2;PMS_P1;PMS_P2;Temp;Humidity;BMP_temperature;BMP_pressure;BME280_temperature;BME280_humidity;BME280_pressure;Samples;Min_cycle;Max_cycle;Signal;HPM_P1;HPM_P2
2021/10/09 00:00:06;;;;;;;26.85;18.55;;;10.10;78.10;;;;;;5071828;28;20045;-87
2021/10/09 00:02:33;;;;;;;24.27;19.55;;;10.10;78.00;;;;;;5071852;28;20106;-87
2021/10/09 00:05:01;;;;;;;27.42;18.42;;;10.20;78.00;;;;;;5071700;28;20106;-86
2021/10/09 00:07:28;;;;;;;26.40;20.08;;;10.00;78.00;;;;;;5071518;28;20052;-86
2021/10/09 00:09:59;;;;;;;25.33;17.75;;;10.00;78.00;;;;;;5071533;28;20119;-85
2021/10/09 00:12:27;;;;;;;25.55;19.02;;;10.00;77.90;;;;;;5071362;28;20382;-86
2021/10/09 00:14:54;;;;;;;27.35;18.88;;;10.00;77.80;;;;;;5071488;28;20053;-85
2021/10/09 00:17:23;;;;;;;32.00;22.48;;;10.00;77.80;;;;;;5072122;28;20045;-86
2021/10/09 00:19:51;;;;;;;30.90;22.55;;;10.00;77.90;;;;;;5070967;28;20113;-87
2021/10/09 00:22:18;;;;;;;32.55;22.65;;;10.00;78.00;;;;;;5071232;28;20044;-86
2021/10/09 00:24:45;;;;;;;25.98;17.50;;;9.90;78.00;;;;;;5070930;28;20133;-88
2021/10/09 00:27:13;;;;;;;31.60;22.70;;;9.90;78.00;;;;;;5071290;28;20550;-85
2021/10/09 00:29:41;;;;;;;33.60;24.35;;;9.90;78.00;;;;;;5071288;28;20049;-86
2021/10/09 00:32:08;;;;;;;28.10;21.02;;;9.90;78.10;;;;;;5071645;28;20052;-85
2021/10/09 00:34:35;;;;;;;26.80;21.05;;;9.90;78.10;;;;;;5070606;28;20049;-86
2021/10/09 00:37:02;;;;;;;25.75;20.33;;;9.90;78.10;;;;;;5070910;28;20563;-86
2021/10/09 00:39:29;;;;;;;31.88;21.90;;;9.90;78.10;;;;;;5071005;28;20106;-87
2021/10/09 00:41:55;;;;;;;27.80;20.33;;;9.90;78.10;;;;;;5071005;28;20036;-86
2021/10/09 00:44:23;;;;;;;32.78;23.17;;;9.90;78.10;;;;;;5071363;28;20057;-86
2021/10/09 00:46:50;;;;;;;27.85;21.70;;;9.90;78.10;;;;;;5069989;28;20048;-86
2021/10/09 00:49:17;;;;;;;34.38;24.65;;;9.90;78.20;;;;;;5070373;28;20102;-86
2021/10/09 00:51:46;;;;;;;33.53;22.88;;;9.80;78.20;;;;;;5070649;28;20044;-86
2021/10/09 00:54:15;;;;;;;32.95;23.40;;;9.80;78.20;;;;;;5070729;28;20466;-87
2021/10/09 00:56:45;;;;;;;29.48;20.85;;;9.80;78.30;;;;;;5070837;28;20847;-86
2021/10/09 00:59:13;;;;;;;31.00;22.50;;;9.80;78.40;;;;;;5071236;28;20113;-86
2021/10/09 01:01:44;;;;;;;29.52;20.25;;;9.70;78.40;;;;;;5068999;28;20106;-86
2021/10/09 01:04:11;;;;;;;32.28;21.85;;;9.70;78.30;;;;;;5070436;28;20055;-86
2021/10/09 01:06:38;;;;;;;28.63;20.83;;;9.70;78.30;;;;;;5070603;28;20049;-85
2021/10/09 01:09:05;;;;;;;27.48;20.55;;;9.70;78.20;;;;;;5070573;28;20049;-86
2021/10/09 01:11:32;;;;;;;30.77;22.30;;;9.70;78.20;;;;;;5070595;28;20044;-86
2021/10/09 01:13:59;;;;;;;34.38;23.40;;;9.70;78.10;;;;;;5070862;28;20102;-86
2021/10/09 01:16:29;;;;;;;28.30;20.75;;;9.60;78.10;;;;;;5070083;28;20044;-86
2021/10/09 01:18:57;;;;;;;28.52;21.20;;;9.60;78.10;;;;;;5069017;28;20437;-86
2021/10/09 01:21:25;;;;;;;25.55;19.83;;;9.60;78.10;;;;;;5070397;28;20045;-87
2021/10/09 01:23:53;;;;;;;29.52;21.00;;;9.60;78.10;;;;;;5054651;28;20070;-86
2021/10/09 01:26:20;;;;;;;28.35;21.38;;;9.60;78.20;;;;;;5066790;28;20432;-86
2021/10/09 01:28:50;;;;;;;34.60;24.60;;;9.60;78.10;;;;;;5067892;28;20053;-85
2021/10/09 01:31:18;;;;;;;31.23;22.35;;;9.60;78.10;;;;;;5069929;28;20045;-86
2021/10/09 01:33:45;;;;;;;31.17;21.02;;;9.50;78.20;;;;;;5070193;28;20556;-86
2021/10/09 01:36:12;;;;;;;34.72;24.58;;;9.50;78.30;;;;;;5070307;28;20057;-85
2021/10/09 01:38:40;;;;;;;28.70;21.08;;;9.50;78.30;;;;;;5070139;28;20052;-86
2021/10/09 01:41:07;;;;;;;30.20;21.23;;;9.50;78.30;;;;;;5070719;28;20053;-85
2021/10/09 01:43:34;;;;;;;32.58;21.33;;;9.50;78.30;;;;;;5070009;28;20052;-86
2021/10/09 01:46:01;;;;;;;29.50;22.10;;;9.50;78.30;;;;;;5069705;28;20053;-85
2021/10/09 01:48:35;;;;;;;25.08;20.05;;;9.50;78.20;;;;;;5069975;28;20427;-86
2021/10/09 01:51:04;;;;;;;33.17;22.98;;;9.40;78.30;;;;;;5070190;28;20094;-86
2021/10/09 01:53:31;;;;;;;31.92;22.00;;;9.40;78.30;;;;;;5070092;28;20049;-86
2021/10/09 01:55:58;;;;;;;34.00;23.25;;;9.40;78.20;;;;;;5070613;28;20048;-86
2021/10/09 01:58:25;;;;;;;28.83;21.02;;;9.40;78.20;;;;;;5073782;28;20048;-86
2021/10/09 02:00:53;;;;;;;25.95;19.40;;;9.40;78.30;;;;;;5073701;28;20041;-86
2021/10/09 02:03:21;;;;;;;28.10;21.77;;;9.40;78.30;;;;;;5074014;28;20066;-86
2021/10/09 02:05:48;;;;;;;36.55;23.80;;;9.40;78.20;;;;;;5073978;28;20528;-85
2021/10/09 02:08:16;;;;;;;32.35;22.92;;;9.40;78.20;;;;;;5074509;28;20094;-85
2021/10/09 02:10:55;;;;;;;28.77;20.98;;;9.40;78.30;;;;;;5073683;28;20079;-86
2021/10/09 02:13:31;;;;;;;32.60;19.52;;;9.30;78.30;;;;;;5073662;28;20103;-86
2021/10/09 02:26:57;;;;;;;31.65;23.63;;;9.20;77.90;;;;;;5058400;28;20086;-86
2021/10/09 02:29:24;;;;;;;32.75;22.88;;;9.20;78.10;;;;;;5073467;28;20049;-85
2021/10/09 02:31:55;;;;;;;26.10;19.67;;;9.20;78.20;;;;;;5073325;28;20493;-85
2021/10/09 02:34:22;;;;;;;29.95;20.52;;;9.10;78.20;;;;;;5073207;28;20048;-86
2021/10/09 02:36:49;;;;;;;27.45;19.65;;;9.10;78.20;;;;;;5073402;28;20467;-85
2021/10/09 02:39:16;;;;;;;27.55;21.17;;;9.10;78.20;;;;;;5073347;28;20044;-86
2021/10/09 02:41:43;;;;;;;27.63;20.98;;;9.00;78.20;;;;;;5073316;28;20053;-86
2021/10/09 02:44:10;;;;;;;30.25;22.38;;;9.00;78.20;;;;;;5073424;28;20670;-86
2021/10/09 02:46:37;;;;;;;28.33;19.70;;;9.00;78.30;;;;;;5073143;28;20044;-86
2021/10/09 02:49:05;;;;;;;28.38;19.40;;;9.00;78.40;;;;;;5072982;28;20496;-86
2021/10/09 02:51:32;;;;;;;27.85;21.55;;;8.90;78.40;;;;;;5071823;28;20098;-86
2021/10/09 02:53:58;;;;;;;33.67;22.58;;;8.90;78.40;;;;;;5073091;28;20516;-85
2021/10/09 02:56:25;;;;;;;25.02;19.63;;;8.90;78.40;;;;;;5073364;28;20064;-87
2021/10/09 02:58:52;;;;;;;23.88;17.17;;;8.90;78.50;;;;;;5072839;28;20052;-86
2021/10/09 03:01:19;;;;;;;27.42;19.85;;;8.90;78.50;;;;;;5072591;28;20455;-85
2021/10/09 03:03:46;;;;;;;24.15;18.30;;;8.90;78.40;;;;;;5072768;28;20597;-85
2021/10/09 03:06:13;;;;;;;25.70;17.85;;;8.90;78.30;;;;;;5072954;28;20052;-86
2021/10/09 03:08:40;;;;;;;24.88;17.38;;;8.80;78.20;;;;;;5071976;28;20105;-86
2021/10/09 03:11:07;;;;;;;28.55;19.90;;;8.80;78.10;;;;;;5073379;28;20051;-86
2021/10/09 03:13:34;;;;;;;27.42;20.25;;;8.80;78.10;;;;;;5072184;28;20052;-87
2021/10/09 03:16:01;;;;;;;25.02;20.17;;;8.70;78.00;;;;;;5072447;28;20048;-86
2021/10/09 03:18:28;;;;;;;30.60;23.05;;;8.70;78.00;;;;;;5071351;28;20054;-86
2021/10/09 03:20:54;;;;;;;31.13;21.13;;;8.70;78.10;;;;;;5072654;28;20529;-87
2021/10/09 03:23:21;;;;;;;31.95;22.80;;;8.70;78.10;;;;;;5073139;28;20048;-85
2021/10/09 03:25:48;;;;;;;28.85;21.60;;;8.70;78.10;;;;;;5072225;28;20061;-86
2021/10/09 03:28:15;;;;;;;30.40;19.55;;;8.70;77.90;;;;;;5071926;28;20094;-86
2021/10/09 03:30:42;;;;;;;34.85;21.25;;;8.70;77.90;;;;;;5072448;28;20079;-85
2021/10/09 03:33:09;;;;;;;37.03;25.02;;;8.60;77.90;;;;;;5072497;28;20049;-85
2021/10/09 03:35:36;;;;;;;44.80;27.35;;;8.60;77.90;;;;;;5072374;28;20048;-87
2021/10/09 03:38:03;;;;;;;41.50;26.45;;;8.60;77.90;;;;;;5070621;28;20094;-86
2021/10/09 03:40:31;;;;;;;40.95;26.88;;;8.60;78.00;;;;;;5072055;28;20075;-85
2021/10/09 03:43:08;;;;;;;36.30;24.60;;;8.60;78.00;;;;;;5071819;28;20044;-85
2021/10/09 03:45:43;;;;;;;38.13;25.35;;;8.60;78.10;;;;;;5071992;28;20052;-86
2021/10/09 03:53:28;;;;;;;38.40;24.35;;;8.50;78.10;;;;;;5069153;28;20703;-85
2021/10/09 03:55:55;;;;;;;39.63;25.52;;;8.50;78.10;;;;;;5072072;28;20098;-86
2021/10/09 03:58:22;;;;;;;41.17;25.60;;;8.50;78.20;;;;;;5071721;28;20094;-86
2021/10/09 04:00:49;;;;;;;38.28;24.08;;;8.50;78.10;;;;;;5071580;28;20638;-86
2021/10/09 04:03:16;;;;;;;35.72;23.70;;;8.40;78.00;;;;;;5071742;28;20087;-85
2021/10/09 04:05:43;;;;;;;38.67;25.20;;;8.40;78.10;;;;;;5071780;28;20420;-85
2021/10/09 04:08:10;;;;;;;37.92;24.90;;;8.40;78.00;;;;;;5072227;28;20579;-87
2021/10/09 04:10:38;;;;;;;39.53;25.88;;;8.40;77.90;;;;;;5071130;28;20504;-84
2021/10/09 04:13:05;;;;;;;43.97;25.73;;;8.40;77.90;;;;;;5071486;28;20044;-85
2021/10/09 04:15:32;;;;;;;36.80;25.17;;;8.40;77.80;;;;;;5071337;28;20056;-86
2021/10/09 04:17:59;;;;;;;35.05;24.05;;;8.40;77.90;;;;;;5071399;28;20087;-86
2021/10/09 04:20:27;;;;;;;42.28;25.63;;;8.40;77.90;;;;;;5071730;28;20048;-85
2021/10/09 04:22:54;;;;;;;35.60;24.27;;;8.30;77.90;;;;;;5070678;28;20493;-86
2021/10/09 04:25:21;;;;;;;34.17;23.05;;;8.30;78.00;;;;;;5070742;28;20049;-86
2021/10/09 04:27:48;;;;;;;33.22;24.13;;;8.30;78.10;;;;;;5071208;28;20448;-85
2021/10/09 04:30:15;;;;;;;34.92;24.50;;;8.30;78.00;;;;;;5071151;28;20054;-85
2021/10/09 04:32:41;;;;;;;32.65;23.27;;;8.30;78.00;;;;;;5071232;28;20056;-86
2021/10/09 04:35:08;;;;;;;30.80;22.75;;;8.30;78.10;;;;;;5071644;28;20048;-85
2021/10/09 04:37:35;;;;;;;31.77;23.48;;;8.20;78.10;;;;;;5070879;28;20106;-85
2021/10/09 04:40:06;;;;;;;28.25;21.55;;;8.20;78.20;;;;;;5070692;28;20052;-86
2021/10/09 04:42:33;;;;;;;26.25;19.88;;;8.20;78.20;;;;;;5070874;28;20048;-85
2021/10/09 04:45:00;;;;;;;24.90;19.30;;;8.20;78.30;;;;;;5071065;28;20049;-87
2021/10/09 04:47:26;;;;;;;24.63;20.20;;;8.20;78.30;;;;;;5071023;28;20048;-86
2021/10/09 04:49:53;;;;;;;26.90;21.95;;;8.20;78.30;;;;;;5070292;28;20578;-86
2021/10/09 04:52:20;;;;;;;28.40;23.38;;;8.10;78.40;;;;;;5070682;28;20098;-87
2021/10/09 04:54:47;;;;;;;29.98;22.77;;;8.10;78.50;;;;;;5070263;28;20045;-86
2021/10/09 04:57:14;;;;;;;26.60;22.25;;;8.10;78.60;;;;;;5070486;28;20049;-85
2021/10/09 04:59:41;;;;;;;27.38;22.30;;;8.10;78.60;;;;;;5070682;28;20060;-86
2021/10/09 05:02:08;;;;;;;29.65;23.13;;;8.20;78.70;;;;;;5071089;28;20044;-85
2021/10/09 05:04:35;;;;;;;30.40;23.48;;;8.10;78.70;;;;;;5070556;28;20049;-85
2021/10/09 05:07:02;;;;;;;27.75;22.33;;;8.10;78.80;;;;;;5070460;28;20048;-85
2021/10/09 05:09:29;;;;;;;29.55;21.88;;;8.10;78.90;;;;;;5070107;28;20101;-87
2021/10/09 05:11:55;;;;;;;34.83;24.98;;;8.00;78.90;;;;;;5070642;28;20041;-85
2021/10/09 05:14:22;;;;;;;41.97;26.70;;;8.10;78.90;;;;;;5070674;28;20041;-85
2021/10/09 05:16:49;;;;;;;37.35;24.92;;;8.10;79.00;;;;;;5070164;28;20582;-86
2021/10/09 05:19:16;;;;;;;33.03;24.08;;;8.10;79.10;;;;;;5070459;28;20050;-86
2021/10/09 05:21:43;;;;;;;50.00;28.05;;;8.10;79.20;;;;;;5070420;28;20056;-86
2021/10/09 05:24:10;;;;;;;43.17;27.30;;;8.10;79.20;;;;;;5069887;28;20044;-86
2021/10/09 05:26:38;;;;;;;45.03;28.60;;;8.10;79.20;;;;;;5070276;28;20049;-86
2021/10/09 05:29:10;;;;;;;39.67;27.35;;;8.10;79.30;;;;;;5070797;28;20049;-85
2021/10/09 05:31:37;;;;;;;44.88;27.73;;;8.10;79.40;;;;;;5069880;28;20052;-86
2021/10/09 05:34:03;;;;;;;40.65;28.00;;;8.10;79.40;;;;;;5070059;28;20044;-85
2021/10/09 05:36:30;;;;;;;42.88;27.33;;;8.10;79.40;;;;;;5070194;28;20052;-85
2021/10/09 05:38:57;;;;;;;42.30;26.45;;;8.10;79.50;;;;;;5069872;28;20036;-85
2021/10/09 05:41:24;;;;;;;39.72;25.92;;;8.10;79.60;;;;;;5069276;28;20057;-86
2021/10/09 05:43:51;;;;;;;41.53;26.75;;;8.10;79.60;;;;;;5070574;28;20090;-85
2021/10/09 05:46:19;;;;;;;43.83;27.30;;;8.10;79.70;;;;;;5070013;28;20577;-85
2021/10/09 05:48:46;;;;;;;45.17;28.38;;;8.10;79.70;;;;;;5069929;28;20544;-85
2021/10/09 05:51:27;;;;;;;43.45;28.08;;;8.10;79.70;;;;;;5070114;28;20048;-85
2021/10/09 06:00:05;;;;;;;47.90;31.73;;;8.10;80.00;;;;;;5058169;28;20044;-86
2021/10/09 06:42:20;;;;;;;74.20;42.25;;;8.30;81.30;;;;;;5070941;28;20045;-84
2021/10/09 07:00:09;;;;;;;163.93;55.35;;;8.60;82.10;;;;;;5060321;28;20566;-84
2021/10/09 07:02:40;;;;;;;140.68;63.63;;;8.70;82.20;;;;;;5072844;28;20106;-84
2021/10/09 07:05:09;;;;;;;114.75;56.67;;;8.70;82.40;;;;;;5074237;28;20507;-87
2021/10/09 07:07:41;;;;;;;101.05;57.17;;;8.80;82.60;;;;;;5073869;28;20114;-84
2021/10/09 07:10:09;;;;;;;75.03;45.38;;;8.80;82.80;;;;;;5073787;28;20045;-85
2021/10/09 07:12:38;;;;;;;89.18;50.08;;;8.90;83.00;;;;;;5073847;28;20044;-85
2021/10/09 07:15:07;;;;;;;157.13;66.43;;;8.90;83.10;;;;;;5073697;28;20048;-85
2021/10/09 07:17:34;;;;;;;135.85;62.92;;;8.90;83.20;;;;;;5073546;28;20053;-86
2021/10/09 07:20:04;;;;;;;87.90;51.58;;;9.00;83.30;;;;;;5073833;28;20512;-86
2021/10/09 07:22:31;;;;;;;125.70;61.78;;;9.00;83.40;;;;;;5073766;28;20049;-85
2021/10/09 07:25:17;;;;;;;161.82;66.50;;;9.00;83.50;;;;;;5073375;28;20094;-85
2021/10/09 07:27:45;;;;;;;115.68;59.45;;;9.10;83.60;;;;;;5071459;28;20044;-85
2021/10/09 07:30:13;;;;;;;132.90;62.42;;;9.20;83.70;;;;;;5072097;28;20490;-85
2021/10/09 07:32:41;;;;;;;160.88;69.15;;;9.20;83.80;;;;;;5071663;28;20040;-86
2021/10/09 07:35:08;;;;;;;118.13;57.60;;;9.20;83.90;;;;;;5076816;28;20074;-85
2021/10/09 07:37:35;;;;;;;139.73;66.55;;;9.20;83.90;;;;;;5072826;28;20048;-85
2021/10/09 07:40:02;;;;;;;149.00;69.00;;;9.30;84.00;;;;;;5073064;28;20202;-85
2021/10/09 07:42:29;;;;;;;148.10;63.65;;;9.40;84.10;;;;;;5073816;28;20508;-85
2021/10/09 07:44:56;;;;;;;161.05;61.78;;;9.40;84.10;;;;;;5070462;28;25116;-85
2021/10/09 07:47:23;;;;;;;158.60;61.25;;;9.40;84.20;;;;;;5075518;28;20106;-85
2021/10/09 07:49:50;;;;;;;148.93;62.05;;;9.40;84.20;;;;;;5074546;28;20048;-85
2021/10/09 07:52:17;;;;;;;105.20;53.78;;;9.40;84.20;;;;;;5072388;28;20045;-85
2021/10/09 07:54:44;;;;;;;110.13;52.65;;;9.50;84.20;;;;;;5072254;28;20455;-85
2021/10/09 07:57:10;;;;;;;110.82;57.75;;;9.50;84.20;;;;;;5070571;28;20049;-85
2021/10/09 07:59:37;;;;;;;157.95;60.72;;;9.50;84.20;;;;;;5071710;28;20048;-86
2021/10/09 08:02:05;;;;;;;157.05;59.30;;;9.50;84.30;;;;;;5074695;28;20094;-86
2021/10/09 08:04:32;;;;;;;134.98;59.30;;;9.60;84.30;;;;;;5072166;28;20040;-85
2021/10/09 08:06:59;;;;;;;116.43;57.60;;;9.60;84.40;;;;;;5072518;28;20101;-84
2021/10/09 08:09:29;;;;;;;114.00;63.00;;;9.60;84.40;;;;;;5083635;28;20086;-86
2021/10/09 08:11:56;;;;;;;89.82;52.65;;;9.60;84.50;;;;;;5068201;28;20052;-85
2021/10/09 08:14:23;;;;;;;67.32;41.45;;;9.70;84.50;;;;;;5074962;28;20048;-84
2021/10/09 08:16:50;;;;;;;117.35;58.85;;;9.70;84.60;;;;;;5071600;28;20130;-85
2021/10/09 08:19:17;;;;;;;94.35;50.50;;;9.80;84.60;;;;;;5072225;28;20086;-86
2021/10/09 08:21:45;;;;;;;90.97;50.60;;;9.80;84.60;;;;;;5071897;28;20400;-85
2021/10/09 08:26:55;;;;;;;96.45;53.70;;;9.90;84.70;;;;;;5069752;28;20511;-85
2021/10/09 08:40:18;;;;;;;62.70;40.55;;;10.00;84.60;;;;;;5071451;28;20036;-86
2021/10/09 08:42:45;;;;;;;72.95;44.35;;;10.10;84.50;;;;;;5071444;28;20052;-86
2021/10/09 08:45:15;;;;;;;77.20;47.65;;;10.10;84.50;;;;;;5070185;28;20486;-85
2021/10/09 08:47:44;;;;;;;80.20;44.92;;;10.20;84.50;;;;;;5069329;28;20053;-85
2021/10/09 08:50:13;;;;;;;78.50;48.10;;;10.20;84.40;;;;;;5074968;28;20048;-85
2021/10/09 08:52:56;;;;;;;109.03;58.35;;;10.20;84.40;;;;;;5071467;28;20049;-86
2021/10/09 08:55:26;;;;;;;70.10;44.85;;;10.20;84.40;;;;;;5079523;28;20443;-86
2021/10/09 08:57:57;;;;;;;86.80;49.95;;;10.30;84.50;;;;;;5079066;28;20044;-85
2021/10/09 09:00:41;;;;;;;91.88;54.47;;;10.30;84.50;;;;;;5070926;28;20462;-85
2021/10/09 09:03:17;;;;;;;80.25;52.88;;;10.40;84.50;;;;;;5055826;28;20103;-85
2021/10/09 09:06:13;;;;;;;71.13;48.60;;;10.40;84.50;;;;;;5068463;28;20053;-85
2021/10/09 09:09:16;;;;;;;75.93;49.28;;;10.50;84.50;;;;;;5083494;28;20503;-84
2021/10/09 09:25:27;;;;;;;62.88;43.33;;;10.60;84.50;;;;;;5082788;28;20105;-85
2021/10/09 09:34:09;;;;;;;69.78;45.22;;;11.00;84.50;;;;;;5028289;28;20091;-86
2021/10/09 09:41:44;;;;;;;56.75;35.63;;;11.20;84.20;;;;;;5028615;28;20115;-85
2021/10/09 09:44:12;;;;;;;55.50;38.58;;;11.20;84.10;;;;;;5031046;28;20111;-86
2021/10/09 09:46:39;;;;;;;66.65;42.97;;;11.20;84.00;;;;;;5028085;28;20049;-86
2021/10/09 09:49:07;;;;;;;64.15;43.65;;;11.20;84.00;;;;;;5028072;28;20056;-86
2021/10/09 09:51:38;;;;;;;71.80;45.55;;;11.30;83.90;;;;;;5028074;28;20099;-86
2021/10/09 09:54:06;;;;;;;81.80;47.50;;;11.30;84.00;;;;;;5025914;28;20140;-86
2021/10/09 09:56:33;;;;;;;68.03;44.88;;;11.40;84.00;;;;;;5028367;28;20151;-86
2021/10/09 09:59:01;;;;;;;84.18;50.85;;;11.40;84.10;;;;;;5029679;28;20053;-86
2021/10/09 10:01:35;;;;;;;71.43;45.50;;;11.50;84.10;;;;;;5030341;28;20049;-86
2021/10/09 10:04:03;;;;;;;58.58;41.75;;;11.60;84.10;;;;;;5027986;28;20038;-86
2021/10/09 10:06:30;;;;;;;67.00;42.47;;;11.70;84.10;;;;;;5029552;28;20057;-85
2021/10/09 10:08:59;;;;;;;67.60;41.78;;;11.70;84.00;;;;;;5024251;28;20140;-86
2021/10/09 10:11:27;;;;;;;79.88;49.45;;;11.90;84.10;;;;;;5072751;28;20645;-86
2021/10/09 10:13:56;;;;;;;79.18;50.17;;;12.00;84.20;;;;;;5076526;28;20048;-86
2021/10/09 10:16:25;;;;;;;71.00;48.38;;;12.10;84.20;;;;;;5073443;28;20048;-87
2021/10/09 10:18:54;;;;;;;58.55;42.00;;;12.20;84.10;;;;;;5073152;28;20045;-87
2021/10/09 10:21:36;;;;;;;50.17;37.28;;;12.40;83.90;;;;;;5075563;28;20048;-85
2021/10/09 10:24:04;;;;;;;54.15;39.42;;;12.40;83.60;;;;;;5056743;28;20041;-86
2021/10/09 10:26:32;;;;;;;52.00;38.15;;;12.50;83.40;;;;;;5074792;28;20501;-86
2021/10/09 10:28:58;;;;;;;50.97;35.03;;;12.60;83.30;;;;;;5075719;28;20094;-86
2021/10/09 10:31:27;;;;;;;40.45;31.15;;;12.70;83.00;;;;;;5073859;28;20451;-86
2021/10/09 10:34:29;;;;;;;47.25;34.42;;;12.90;82.80;;;;;;5074301;28;20049;-87
2021/10/09 10:36:56;;;;;;;39.85;33.35;;;12.90;82.40;;;;;;5034183;28;20042;-86
2021/10/09 10:39:38;;;;;;;48.13;37.20;;;13.00;81.90;;;;;;5034246;28;20045;-87
2021/10/09 10:42:08;;;;;;;46.67;36.97;;;13.00;81.80;;;;;;5017543;28;20506;-85
2021/10/09 10:45:11;;;;;;;47.08;36.33;;;13.10;81.80;;;;;;5032207;28;20057;-86
2021/10/09 10:47:45;;;;;;;50.03;37.25;;;13.20;81.70;;;;;;5046182;28;20052;-87
2021/10/09 10:51:03;;;;;;;50.10;37.38;;;13.30;81.40;;;;;;5035408;28;20053;-86
2021/10/09 10:54:04;;;;;;;39.22;30.85;;;13.40;81.20;;;;;;5043577;28;20052;-86
2021/10/09 10:56:31;;;;;;;37.45;30.52;;;13.60;81.20;;;;;;5043165;28;20571;-86
2021/10/09 10:59:30;;;;;;;33.92;27.73;;;13.70;80.90;;;;;;5034937;28;20049;-87
2021/10/09 11:02:18;;;;;;;39.53;32.03;;;13.90;80.40;;;;;;5034345;28;20049;-86
2021/10/09 11:05:08;;;;;;;45.15;33.58;;;14.00;80.00;;;;;;5033866;28;20537;-86
2021/10/09 11:07:37;;;;;;;44.20;32.35;;;14.20;79.70;;;;;;5033669;28;20111;-87
2021/10/09 11:10:12;;;;;;;37.65;29.48;;;14.40;79.50;;;;;;5036872;28;20045;-86
2021/10/09 11:12:43;;;;;;;42.97;32.72;;;14.50;79.30;;;;;;5063828;28;20052;-86
2021/10/09 11:15:25;;;;;;;39.88;31.17;;;14.70;79.10;;;;;;5071209;28;20044;-87
2021/10/09 11:17:55;;;;;;;37.67;29.23;;;14.90;78.90;;;;;;5053308;28;20545;-87
2021/10/09 11:20:26;;;;;;;38.33;30.88;;;15.00;78.50;;;;;;5085554;28;20098;-87
2021/10/09 11:22:55;;;;;;;41.85;31.50;;;15.20;78.00;;;;;;5074665;28;20045;-87
2021/10/09 11:25:31;;;;;;;41.45;30.40;;;15.30;77.80;;;;;;5074133;28;20463;-87
2021/10/09 11:28:06;;;;;;;35.63;29.08;;;15.50;77.50;;;;;;5073004;28;20048;-88
2021/10/09 11:30:34;;;;;;;39.30;30.13;;;15.70;77.00;;;;;;5072769;28;20106;-86
2021/10/09 11:33:01;;;;;;;39.33;29.60;;;15.80;76.70;;;;;;5069735;28;20055;-87
2021/10/09 11:35:34;;;;;;;32.97;26.10;;;16.00;76.10;;;;;;5074295;28;20045;-86
2021/10/09 11:38:16;;;;;;;40.60;29.60;;;16.20;75.70;;;;;;5076922;28;20048;-86
2021/10/09 11:40:55;;;;;;;38.97;28.15;;;16.30;75.10;;;;;;5077398;28;20048;-87
2021/10/09 11:43:46;;;;;;;39.78;27.80;;;16.40;74.70;;;;;;5076195;28;20574;-87
2021/10/09 11:46:45;;;;;;;40.78;28.85;;;16.60;73.80;;;;;;5072643;28;20048;-88
2021/10/09 11:55:33;;;;;;;;;;;16.90;71.50;;;;;;5072726;28;20098;-88
2021/10/09 11:58:02;;;;;;;30.65;22.33;;;17.00;71.10;;;;;;5070477;28;19924;-89
2021/10/09 12:00:49;;;;;;;33.75;24.10;;;17.10;69.80;;;;;;5072267;28;20700;-88
2021/10/09 12:03:36;;;;;;;30.92;22.60;;;17.20;69.30;;;;;;5072885;28;20512;-86
2021/10/09 12:06:11;;;;;;;28.20;22.75;;;17.20;69.20;;;;;;5054742;28;20103;-88
2021/10/09 12:08:52;;;;;;;30.58;22.70;;;17.30;69.40;;;;;;5088443;28;20055;-88
2021/10/09 12:11:21;;;;;;;47.08;29.25;;;17.40;68.70;;;;;;5084026;28;20044;-88
2021/10/09 12:14:05;;;;;;;29.85;21.27;;;17.40;68.20;;;;;;5071507;28;20110;-88
2021/10/09 12:16:34;;;;;;;30.75;21.33;;;17.50;67.30;;;;;;5071993;28;20045;-87
2021/10/09 12:19:05;;;;;;;25.90;20.25;;;17.50;66.70;;;;;;5072308;28;20131;-87
2021/10/09 12:21:52;;;;;;;27.83;21.75;;;17.50;66.40;;;;;;5071929;28;20143;-89
2021/10/09 12:24:20;;;;;;;31.38;23.83;;;17.60;66.40;;;;;;5070650;28;20040;-88
2021/10/09 12:27:04;;;;;;;32.15;24.48;;;17.60;66.50;;;;;;5068782;28;20048;-88
2021/10/09 12:29:35;;;;;;;30.77;24.85;;;17.70;66.90;;;;;;5083871;28;20094;-89
2021/10/09 12:32:15;;;;;;;33.17;24.45;;;17.80;67.60;;;;;;5073748;28;20650;-88
2021/10/09 12:34:42;;;;;;;32.15;25.77;;;17.90;68.10;;;;;;5071672;28;20048;-87
2021/10/09 12:37:15;;;;;;;31.10;24.52;;;17.90;68.00;;;;;;5071569;28;20048;-88
2021/10/09 12:39:44;;;;;;;28.67;22.23;;;18.10;68.20;;;;;;5071183;28;20044;-87
2021/10/09 12:42:13;;;;;;;28.50;23.67;;;18.10;67.70;;;;;;5070287;28;20048;-87
2021/10/09 12:44:40;;;;;;;32.80;23.17;;;18.20;66.90;;;;;;5070391;28;20582;-87
2021/10/09 12:47:07;;;;;;;28.13;21.48;;;18.30;66.80;;;;;;5074274;28;20048;-87
2021/10/09 12:49:35;;;;;;;32.20;23.48;;;18.30;66.90;;;;;;5071684;28;20102;-88
2021/10/09 12:52:02;;;;;;;29.38;22.38;;;18.40;66.60;;;;;;5071528;28;20048;-87
2021/10/09 12:54:31;;;;;;;33.85;23.10;;;18.40;66.30;;;;;;5070993;28;20085;-88
2021/10/09 12:56:58;;;;;;;29.40;22.17;;;18.40;66.30;;;;;;5067661;28;20053;-87
2021/10/09 12:59:26;;;;;;;26.83;21.30;;;18.50;66.00;;;;;;5074086;28;20048;-87
2021/10/09 13:01:53;;;;;;;28.25;22.95;;;18.60;65.90;;;;;;5088312;28;20895;-87
2021/10/09 13:04:20;;;;;;;29.38;20.80;;;18.60;65.80;;;;;;5071120;28;20570;-87
2021/10/09 13:06:47;;;;;;;26.58;19.50;;;18.70;65.40;;;;;;5070833;28;20044;-86
2021/10/09 13:09:15;;;;;;;31.33;22.08;;;18.80;65.10;;;;;;5070105;28;20040;-87
2021/10/09 13:11:47;;;;;;;32.40;22.85;;;18.80;65.10;;;;;;5069467;28;20041;-88
2021/10/09 13:14:14;;;;;;;31.60;23.08;;;18.90;64.90;;;;;;5074742;28;20045;-87
2021/10/09 13:16:41;;;;;;;28.27;21.77;;;18.90;64.70;;;;;;5072675;28;20394;-87
2021/10/09 13:19:08;;;;;;;31.80;22.98;;;18.90;64.20;;;;;;5076487;28;20040;-87
2021/10/09 13:21:35;;;;;;;31.65;22.70;;;18.90;64.20;;;;;;5071308;28;20451;-87
2021/10/09 13:24:02;;;;;;;30.65;22.38;;;18.90;64.10;;;;;;5067556;28;20037;-86
2021/10/09 13:26:31;;;;;;;29.80;21.42;;;18.90;64.30;;;;;;5072283;28;20079;-89
2021/10/09 13:29:02;;;;;;;27.38;19.73;;;19.00;64.50;;;;;;5074267;28;20048;-90
2021/10/09 13:31:29;;;;;;;24.20;19.05;;;19.00;64.20;;;;;;5070713;28;20094;-87
2021/10/09 13:33:58;;;;;;;25.27;18.23;;;19.10;63.50;;;;;;5070895;28;20040;-87
2021/10/09 13:36:26;;;;;;;27.58;21.33;;;19.10;63.40;;;;;;5070698;28;20069;-87
2021/10/09 13:38:55;;;;;;;26.25;21.50;;;19.20;63.20;;;;;;5066577;28;20044;-87
2021/10/09 13:41:22;;;;;;;31.25;21.67;;;19.30;63.10;;;;;;5074568;28;20099;-86
2021/10/09 13:43:49;;;;;;;24.75;18.70;;;19.30;62.90;;;;;;5070183;28;20658;-87
2021/10/09 13:46:19;;;;;;;27.20;19.05;;;19.30;63.00;;;;;;5070529;28;20086;-87
2021/10/09 13:48:47;;;;;;;24.30;18.55;;;19.40;63.00;;;;;;5070934;28;20063;-86
2021/10/09 13:51:14;;;;;;;29.75;19.50;;;19.40;63.00;;;;;;5068796;28;20725;-88
2021/10/09 13:53:43;;;;;;;26.15;19.25;;;19.40;62.70;;;;;;5072034;28;20843;-87
2021/10/09 13:56:11;;;;;;;22.75;16.63;;;19.50;62.70;;;;;;5077771;28;20048;-88
2021/10/09 13:58:38;;;;;;;22.90;16.38;;;19.50;62.20;;;;;;5074874;28;20056;-88
2021/10/09 14:01:05;;;;;;;21.33;16.38;;;19.50;61.70;;;;;;5076367;28;20048;-90
2021/10/09 14:03:35;;;;;;;23.52;17.35;;;19.60;61.60;;;;;;5074483;28;20079;-90
2021/10/09 14:06:02;;;;;;;21.27;16.90;;;19.60;61.70;;;;;;5071266;28;20045;-89
2021/10/09 14:08:29;;;;;;;21.95;17.35;;;19.70;61.20;;;;;;5076009;28;20052;-88
2021/10/09 14:10:58;;;;;;;27.10;17.15;;;19.60;60.80;;;;;;5076466;28;20048;-87
2021/10/09 14:13:25;;;;;;;23.33;16.27;;;19.70;60.90;;;;;;5074555;28;20072;-86
2021/10/09 14:15:52;;;;;;;26.83;16.63;;;19.80;61.00;;;;;;5074562;28;20041;-87
2021/10/09 14:18:20;;;;;;;20.95;14.65;;;19.80;60.90;;;;;;5073476;28;20512;-87
2021/10/09 14:20:50;;;;;;;18.88;14.32;;;19.80;60.80;;;;;;5071268;28;20041;-86
2021/10/09 14:23:18;;;;;;;19.85;14.45;;;19.90;60.70;;;;;;5078602;28;20118;-86
2021/10/09 14:25:46;;;;;;;17.70;13.85;;;19.90;60.00;;;;;;5074035;28;20049;-86
2021/10/09 14:28:15;;;;;;;18.35;13.85;;;19.90;59.70;;;;;;5074281;28;20056;-87
2021/10/09 14:30:42;;;;;;;17.77;15.35;;;19.90;59.70;;;;;;5074149;28;20048;-86
2021/10/09 14:33:09;;;;;;;21.35;15.25;;;19.90;59.30;;;;;;5071890;28;20049;-86
2021/10/09 14:35:36;;;;;;;18.40;15.18;;;19.80;58.90;;;;;;5073880;28;20040;-87
2021/10/09 14:38:04;;;;;;;19.38;13.80;;;19.80;58.70;;;;;;5076160;28;20049;-86
2021/10/09 14:40:32;;;;;;;18.95;15.75;;;19.80;58.90;;;;;;5075584;28;20131;-87
2021/10/09 14:42:59;;;;;;;24.05;17.88;;;19.80;59.00;;;;;;5073748;28;20084;-87
2021/10/09 14:45:27;;;;;;;21.27;15.88;;;19.80;59.30;;;;;;5074177;28;20044;-86